Time;durP1;ratioP1;P1;durP2;ratioP2;P2;SDS_P1;SDS_P2;PMS_P1;PMS_P2;Temp;Humidity;BMP_temperature;BMP_pressure;BME280_temperature;BME280_humidity;BME280_pressure;Samples;Min_cycle;Max_cycle;Signal;HPM_P1;HPM_P2
2021/06/27 00:01:09;;;;;;;10.82;8.27;;;19.00;99.90;;;;;;5028546;28;20064;-78
2021/06/27 00:03:35;;;;;;;12.82;9.30;;;18.30;99.90;;;;;;5014074;28;20108;-78
2021/06/27 00:06:01;;;;;;;12.32;8.90;;;18.30;99.90;;;;;;5029145;28;20034;-77
2021/06/27 00:08:27;;;;;;;10.13;8.60;;;18.10;99.90;;;;;;5029774;28;20486;-77
2021/06/27 00:10:57;;;;;;;11.02;9.80;;;18.10;99.90;;;;;;5021863;28;20026;-77
2021/06/27 00:13:23;;;;;;;11.25;9.35;;;18.10;99.90;;;;;;5041629;28;20022;-77
2021/06/27 00:15:49;;;;;;;11.43;9.57;;;18.00;99.90;;;;;;5025072;28;20068;-77
2021/06/27 00:18:18;;;;;;;11.20;9.48;;;17.90;99.90;;;;;;5015507;28;20382;-78
2021/06/27 00:20:47;;;;;;;12.60;9.73;;;18.00;99.90;;;;;;5012778;28;20030;-78
2021/06/27 00:23:15;;;;;;;11.02;9.60;;;18.00;99.90;;;;;;5021964;28;20042;-78
2021/06/27 00:25:42;;;;;;;11.07;9.73;;;17.90;99.90;;;;;;4992982;28;20117;-76
2021/06/27 00:28:09;;;;;;;12.18;9.40;;;17.90;99.90;;;;;;5011634;28;20506;-76
2021/06/27 00:30:37;;;;;;;12.07;9.60;;;17.80;99.90;;;;;;5010682;28;20033;-76
2021/06/27 00:33:04;;;;;;;12.40;9.77;;;17.80;99.90;;;;;;5011222;28;20030;-76
2021/06/27 00:35:31;;;;;;;10.27;9.20;;;17.70;99.90;;;;;;5011615;28;20030;-76
2021/06/27 00:37:56;;;;;;;13.32;9.75;;;17.60;99.90;;;;;;5013651;28;20025;-76
2021/06/27 00:40:24;;;;;;;17.95;10.85;;;17.30;99.90;;;;;;5014749;28;20513;-77
2021/06/27 00:42:51;;;;;;;12.18;9.77;;;17.00;99.90;;;;;;5013521;28;20061;-77
2021/06/27 00:45:18;;;;;;;13.65;10.57;;;17.10;99.90;;;;;;5014981;28;20061;-77
2021/06/27 00:47:45;;;;;;;12.23;9.90;;;17.00;99.90;;;;;;5014865;28;20120;-76
2021/06/27 00:50:15;;;;;;;16.23;9.98;;;16.70;99.90;;;;;;5014506;28;20034;-76
2021/06/27 00:52:41;;;;;;;14.77;11.02;;;16.80;99.90;;;;;;5014868;28;20068;-77
2021/06/27 00:55:07;;;;;;;11.63;10.45;;;17.00;99.90;;;;;;5015615;28;20372;-77
2021/06/27 00:57:36;;;;;;;13.02;11.40;;;16.70;99.90;;;;;;5017426;28;20029;-78
2021/06/27 01:00:06;;;;;;;14.25;10.52;;;16.90;99.90;;;;;;5016725;28;20026;-78
2021/06/27 01:02:32;;;;;;;14.93;11.50;;;16.80;99.90;;;;;;5016953;28;20026;-77
2021/06/27 01:04:57;;;;;;;14.35;10.68;;;16.70;99.90;;;;;;5016415;28;20574;-78
2021/06/27 01:07:23;;;;;;;12.43;10.55;;;16.80;99.90;;;;;;5015733;28;20030;-77
2021/06/27 01:09:49;;;;;;;14.30;11.95;;;16.60;99.90;;;;;;5015002;28;20133;-78
2021/06/27 01:12:14;;;;;;;17.65;10.70;;;17.00;99.90;;;;;;5017103;28;20060;-76
2021/06/27 01:14:40;;;;;;;13.90;10.80;;;16.70;99.90;;;;;;5016526;28;20030;-77
2021/06/27 01:17:05;;;;;;;15.68;11.30;;;16.80;99.90;;;;;;5016377;28;20068;-78
2021/06/27 01:19:33;;;;;;;12.30;10.98;;;16.80;99.90;;;;;;5016648;28;20429;-77
2021/06/27 01:21:59;;;;;;;18.02;11.45;;;16.90;99.90;;;;;;5014992;28;20026;-77
2021/06/27 01:24:25;;;;;;;16.25;10.85;;;17.00;99.90;;;;;;5031903;28;20037;-77
2021/06/27 01:26:51;;;;;;;12.65;10.63;;;17.10;99.90;;;;;;5015173;28;20102;-77
2021/06/27 01:29:17;;;;;;;14.73;11.50;;;17.00;99.90;;;;;;5014958;28;20062;-76
2021/06/27 01:31:44;;;;;;;14.05;11.10;;;16.60;99.90;;;;;;5015688;28;20021;-76
2021/06/27 01:34:11;;;;;;;15.65;11.45;;;16.50;99.90;;;;;;5015601;28;20022;-77
2021/06/27 01:36:37;;;;;;;13.00;10.85;;;16.60;99.90;;;;;;5017825;28;20022;-77
2021/06/27 01:39:03;;;;;;;15.02;11.13;;;16.50;99.90;;;;;;5015850;28;20041;-77
2021/06/27 01:41:29;;;;;;;17.48;11.68;;;16.10;99.90;;;;;;5016542;28;20026;-77
2021/06/27 01:43:55;;;;;;;13.70;10.77;;;16.30;99.90;;;;;;5030329;28;20069;-77
2021/06/27 01:46:20;;;;;;;17.15;12.38;;;16.00;99.90;;;;;;5031158;28;20041;-78
2021/06/27 01:48:46;;;;;;;16.65;12.07;;;16.10;99.90;;;;;;5015713;28;20168;-78
2021/06/27 16:32:11;;;;;;;8.55;4.15;;;;;;;;;;5029802;27;20143;-78
2021/06/27 16:34:37;;;;;;;18.33;4.00;;;;;;;;;;5024431;28;20117;-79
2021/06/27 16:37:06;;;;;;;11.48;3.80;;;;;;;;;;5005354;28;79663;-80
2021/06/27 16:39:32;;;;;;;5.07;3.42;;;;;;;;;;5007065;28;20030;-82
2021/06/27 16:41:58;;;;;;;4.78;3.50;;;;;;;;;;4987704;28;20168;-84
2021/06/27 16:44:25;;;;;;;4.55;3.72;;;;;;;;;;4991546;28;20031;-82
2021/06/27 16:46:52;;;;;;;6.28;3.85;;;;;;;;;;4975509;28;20047;-82
2021/06/27 16:49:18;;;;;;;4.90;3.65;;;;;;;;;;4978583;28;20033;-77
2021/06/27 16:51:44;;;;;;;7.60;3.30;;;;;;;;;;4985761;28;20018;-76
2021/06/27 16:54:10;;;;;;;6.38;3.03;;;;;;;;;;4984901;28;20084;-76
2021/06/27 16:56:36;;;;;;;8.60;3.30;;;;;;;;;;4988184;28;20026;-76
2021/06/27 16:59:03;;;;;;;8.52;3.33;;;;;;;;;;4988859;28;20073;-76
2021/06/27 17:01:29;;;;;;;6.60;3.17;;;;;;;;;;4989255;28;20053;-76
2021/06/27 17:03:56;;;;;;;7.20;3.33;;;;;;;;;;4990023;28;20035;-77
2021/06/27 17:06:22;;;;;;;4.68;3.47;;;;;;;;;;4990870;28;20503;-79
2021/06/27 17:08:48;;;;;;;4.03;2.78;;;;;;;;;;4992551;28;20081;-75
2021/06/27 17:11:14;;;;;;;5.75;3.20;;;;;;;;;;4988376;28;20057;-75
2021/06/27 17:13:41;;;;;;;3.95;3.20;;;;;;;;;;4989513;28;20031;-76
2021/06/27 17:16:07;;;;;;;8.35;3.33;;;;;;;;;;4989254;28;20546;-76
2021/06/27 17:18:34;;;;;;;14.77;4.15;;;;;;;;;;4988558;28;20062;-76
2021/06/27 17:21:01;;;;;;;9.95;3.88;;;;;;;;;;4983429;28;20035;-76
2021/06/27 17:23:27;;;;;;;16.00;4.25;;;;;;;;;;4987885;28;20430;-76
2021/06/27 17:25:54;;;;;;;6.30;3.50;;;;;;;;;;4988435;28;20089;-76
2021/06/27 17:28:21;;;;;;;4.80;3.00;;;;;;;;;;5003650;28;20038;-76
2021/06/27 17:30:47;;;;;;;20.98;5.20;;;;;;;;;;4987130;28;20065;-76
2021/06/27 17:33:14;;;;;;;4.22;3.03;;;;;;;;;;4988527;28;20030;-76
2021/06/27 17:35:40;;;;;;;7.95;3.28;;;;;;;;;;4988566;28;20106;-76
2021/06/27 17:38:08;;;;;;;3.85;2.90;;;;;;;;;;4987571;28;20033;-75
2021/06/27 17:40:35;;;;;;;3.70;3.03;;;;;;;;;;4987650;28;20054;-75
2021/06/27 17:43:02;;;;;;;5.43;3.20;;;;;;;;;;4993469;28;20035;-76
2021/06/27 17:45:28;;;;;;;6.53;3.42;;;;;;;;;;4956078;29;20037;-78
2021/06/27 17:47:54;;;;;;;4.20;3.25;;;;;;;;;;4956109;28;20484;-77
2021/06/27 17:50:20;;;;;;;9.07;4.28;;;;;;;;;;4974930;28;20143;-76
2021/06/27 17:52:46;;;;;;;7.63;2.83;;;;;;;;;;4973885;28;20015;-77
2021/06/27 17:55:13;;;;;;;6.72;2.97;;;;;;;;;;4973630;28;20037;-76
2021/06/27 17:57:39;;;;;;;12.32;3.30;;;;;;;;;;4974512;28;20037;-77
2021/06/27 18:00:07;;;;;;;4.38;3.42;;;;;;;;;;4973910;28;20443;-77
2021/06/27 18:02:33;;;;;;;7.03;3.40;;;;;;;;;;5006141;28;20023;-77
2021/06/27 18:04:59;;;;;;;21.23;5.55;;;;;;;;;;4969348;28;20038;-77
2021/06/27 18:07:25;;;;;;;3.40;2.92;;;;;;;;;;4970868;28;20037;-77
2021/06/27 18:09:51;;;;;;;5.80;2.95;;;;;;;;;;4973394;28;20035;-77
2021/06/27 18:12:17;;;;;;;4.50;3.25;;;;;;;;;;4974489;28;20077;-77
2021/06/27 18:14:43;;;;;;;6.85;3.42;;;;;;;;;;4970648;28;20035;-76
2021/06/27 18:17:09;;;;;;;5.47;3.40;;;;;;;;;;4974644;28;20026;-77
2021/06/27 18:19:35;;;;;;;26.73;4.97;;;;;;;;;;4974033;28;20030;-76
2021/06/27 18:22:01;;;;;;;6.50;3.17;;;;;;;;;;4974671;28;20031;-77
2021/06/27 18:24:28;;;;;;;6.97;3.30;;;;;;;;;;4975099;28;20027;-77
2021/06/27 18:26:54;;;;;;;2.92;2.38;;;;;;;;;;4989765;28;20046;-77
2021/06/27 18:29:20;;;;;;;6.90;2.80;;;;;;;;;;4973519;28;20035;-77
2021/06/27 18:31:46;;;;;;;5.63;2.88;;;;;;;;;;4973962;28;20403;-77
2021/06/27 18:34:12;;;;;;;4.20;2.67;;;;;;;;;;4989013;28;20038;-78
2021/06/27 18:36:38;;;;;;;5.22;2.88;;;;;;;;;;4974174;28;20038;-78
2021/06/27 18:39:04;;;;;;;3.67;2.58;;;;;;;;;;4988068;28;20035;-78
2021/06/27 18:41:30;;;;;;;7.70;3.20;;;;;;;;;;4974039;28;20069;-78
2021/06/27 18:43:56;;;;;;;4.50;2.95;;;;;;;;;;4973845;28;20431;-77
2021/06/27 18:46:22;;;;;;;3.08;2.60;;;;;;;;;;4988977;28;20109;-78
2021/06/27 18:48:48;;;;;;;3.38;3.08;;;;;;;;;;4973306;28;20037;-78
2021/06/27 18:51:14;;;;;;;6.47;3.75;;;;;;;;;;4973453;28;20038;-77
2021/06/27 18:53:41;;;;;;;3.58;2.90;;;;;;;;;;4969900;28;20030;-77
2021/06/27 18:56:07;;;;;;;4.38;3.03;;;;;;;;;;4973892;28;20523;-77
2021/06/27 18:58:38;;;;;;;6.28;2.97;;;;;;;;;;4972333;28;20515;-77
2021/06/27 19:01:05;;;;;;;6.72;3.38;;;;;;;;;;4971139;28;20455;-77
2021/06/27 19:03:31;;;;;;;4.80;3.20;;;;;;;;;;4972018;28;20487;-77
2021/06/27 19:05:57;;;;;;;3.42;2.92;;;;;;;;;;4973554;28;20117;-76
2021/06/27 19:08:23;;;;;;;6.93;3.65;;;;;;;;;;4973559;28;20038;-76
2021/06/27 19:10:49;;;;;;;5.82;3.40;;;;;;;;;;4973554;28;20030;-77
2021/06/27 19:13:17;;;;;;;4.75;3.28;;;;;;;;;;4973537;28;20023;-77
2021/06/27 19:15:43;;;;;;;5.38;3.00;;;;;;;;;;4973464;28;20025;-77
2021/06/27 19:18:09;;;;;;;4.57;2.97;;;;;;;;;;4973264;28;20023;-77
2021/06/27 19:20:36;;;;;;;4.50;3.33;;;;;;;;;;4972819;28;20035;-77
2021/06/27 19:23:02;;;;;;;6.53;3.92;;;;;;;;;;4973405;28;20026;-77
2021/06/27 19:25:28;;;;;;;4.53;3.50;;;;;;;;;;4973534;28;20026;-77
2021/06/27 19:27:54;;;;;;;3.45;2.83;;;;;;;;;;4972635;28;20117;-78
2021/06/27 19:30:20;;;;;;;3.58;3.10;;;;;;;;;;4973155;28;20031;-77
2021/06/27 19:32:47;;;;;;;3.75;3.10;;;;;;;;;;4974660;28;20019;-77
2021/06/27 19:35:14;;;;;;;3.88;3.30;;;;;;;;;;4974734;28;20030;-77
2021/06/27 19:37:41;;;;;;;4.13;2.95;;;;;;;;;;4968145;28;20746;-77
2021/06/27 19:40:09;;;;;;;4.57;3.30;;;;;;;;;;4972271;28;20038;-78
2021/06/27 19:42:35;;;;;;;4.75;3.35;;;;;;;;;;4971675;28;20057;-77
2021/06/27 19:45:01;;;;;;;6.38;3.58;;;;;;;;;;4972840;28;20031;-77
2021/06/27 19:47:28;;;;;;;11.27;3.95;;;;;;;;;;4972714;28;20488;-77
2021/06/27 19:49:54;;;;;;;8.35;4.25;;;;;;;;;;4972013;28;20030;-78
2021/06/27 19:52:20;;;;;;;15.88;4.55;;;;;;;;;;4972805;28;20023;-77
2021/06/27 19:54:47;;;;;;;8.82;4.30;;;;;;;;;;4971067;28;20026;-77
2021/06/27 19:57:16;;;;;;;7.13;4.05;;;;;;;;;;4973246;28;20027;-77
2021/06/27 19:59:45;;;;;;;6.38;4.55;;;;;;;;;;4969833;28;20026;-77
2021/06/27 20:02:34;;;;;;;7.50;4.20;;;;;;;;;;4972689;28;20105;-77
2021/06/27 20:05:03;;;;;;;11.65;4.22;;;;;;;;;;4972554;28;20166;-77
2021/06/27 20:07:32;;;;;;;6.75;3.78;;;;;;;;;;4971395;28;20030;-77
2021/06/27 20:10:01;;;;;;;3.85;3.42;;;;;;;;;;4972432;28;20495;-77
2021/06/27 20:12:30;;;;;;;7.38;3.63;;;;;;;;;;4971762;28;20019;-78
2021/06/27 20:14:57;;;;;;;6.22;3.90;;;;;;;;;;4973435;28;20023;-78
2021/06/27 20:17:23;;;;;;;6.13;4.40;;;;;;;;;;4973234;28;20620;-77
2021/06/27 20:19:49;;;;;;;4.35;3.60;;;;;;;;;;4970642;28;20042;-77
2021/06/27 20:22:15;;;;;;;6.85;4.00;;;;;;;;;;4972543;28;20491;-77
2021/06/27 20:24:42;;;;;;;4.60;4.15;;;;;;;;;;4971900;28;20027;-76
2021/06/27 20:27:08;;;;;;;5.82;4.03;;;;;;;;;;4972262;28;20105;-76
2021/06/27 20:29:34;;;;;;;13.48;4.40;;;;;;;;;;4971187;28;20517;-77
2021/06/27 20:32:00;;;;;;;6.40;4.05;;;;;;;;;;4972453;28;20458;-77
2021/06/27 20:34:26;;;;;;;8.07;4.30;;;;;;;;;;4970905;28;20027;-77
2021/06/27 20:36:52;;;;;;;7.45;4.55;;;;;;;;;;4973438;28;20496;-71
2021/06/27 20:39:18;;;;;;;6.70;4.25;;;;;;;;;;4971538;28;20535;-77
2021/06/27 20:41:45;;;;;;;6.57;4.60;;;;;;;;;;4971521;28;20034;-77
2021/06/27 20:44:11;;;;;;;8.05;4.50;;;;;;;;;;4969968;28;20049;-77
2021/06/27 20:46:38;;;;;;;5.78;4.30;;;;;;;;;;4986468;23;20081;-72
2021/06/27 20:49:04;;;;;;;6.90;5.03;;;;;;;;;;4984285;28;20039;-73
2021/06/27 20:51:32;;;;;;;8.55;4.80;;;;;;;;;;4981418;28;20483;-74
2021/06/27 20:53:59;;;;;;;8.70;4.57;;;;;;;;;;4986872;28;20022;-74
2021/06/27 20:56:26;;;;;;;6.45;4.70;;;;;;;;;;4991983;28;20110;-74
2021/06/27 20:58:52;;;;;;;7.03;4.35;;;;;;;;;;4991796;28;20057;-74
2021/06/27 21:01:18;;;;;;;6.88;4.70;;;;;;;;;;4991444;28;20026;-73
2021/06/27 21:03:44;;;;;;;6.43;4.65;;;;;;;;;;4992224;28;20058;-73
2021/06/27 21:06:10;;;;;;;6.75;4.57;;;;;;;;;;4992170;28;20442;-74
2021/06/27 21:08:36;;;;;;;5.85;4.93;;;;;;;;;;4991569;28;20030;-74
2021/06/27 21:11:04;;;;;;;9.55;4.82;;;;;;;;;;4991540;28;20069;-74
2021/06/27 21:13:30;;;;;;;7.22;4.85;;;;;;;;;;4991938;28;20462;-74
2021/06/27 21:15:56;;;;;;;7.43;5.00;;;;;;;;;;4991966;28;20117;-73
2021/06/27 21:18:22;;;;;;;7.88;4.82;;;;;;;;;;4975832;28;20027;-74
2021/06/27 21:20:48;;;;;;;20.27;5.80;;;;;;;;;;4975582;28;20043;-74
2021/06/27 21:23:14;;;;;;;8.77;5.93;;;;;;;;;;4984832;28;20030;-73
2021/06/27 21:25:40;;;;;;;7.40;5.28;;;;;;;;;;4995830;28;20098;-73
2021/06/27 21:28:06;;;;;;;8.48;4.95;;;;;;;;;;4995794;28;20094;-74
2021/06/27 21:30:32;;;;;;;8.18;5.35;;;;;;;;;;4994998;28;20054;-75
2021/06/27 21:32:59;;;;;;;5.72;4.50;;;;;;;;;;4995704;28;20085;-75
2021/06/27 21:35:26;;;;;;;5.32;4.82;;;;;;;;;;4995531;28;20018;-75
2021/06/27 21:37:52;;;;;;;5.65;5.03;;;;;;;;;;4995593;28;20588;-75
2021/06/27 21:40:19;;;;;;;6.15;5.13;;;;;;;;;;4994432;28;20109;-75
2021/06/27 21:42:45;;;;;;;10.52;5.03;;;;;;;;;;4995405;28;20026;-74
2021/06/27 21:45:13;;;;;;;6.38;5.18;;;;;;;;;;4995473;28;20033;-73
2021/06/27 21:47:40;;;;;;;8.00;4.78;;;;;;;;;;4974232;28;20047;-73
2021/06/27 21:50:06;;;;;;;8.82;5.18;;;;;;;;;;4955778;28;20521;-73
2021/06/27 21:52:33;;;;;;;9.18;4.85;;;;;;;;;;4962194;28;20068;-74
2021/06/27 21:55:00;;;;;;;4.95;4.45;;;;;;;;;;4992997;28;20022;-74
2021/06/27 21:57:26;;;;;;;5.15;4.65;;;;;;;;;;4965392;28;20439;-74
2021/06/27 21:59:52;;;;;;;6.80;4.85;;;;;;;;;;4975059;28;20038;-74
2021/06/27 22:02:18;;;;;;;8.20;4.88;;;;;;;;;;4974269;28;20030;-74
2021/06/27 22:04:44;;;;;;;5.25;4.68;;;;;;;;;;4975435;28;20480;-74
2021/06/27 22:07:10;;;;;;;6.15;4.70;;;;;;;;;;4968424;28;20039;-74
2021/06/27 22:09:36;;;;;;;10.15;4.78;;;;;;;;;;4955055;28;20094;-74
2021/06/27 22:12:02;;;;;;;17.40;5.60;;;;;;;;;;4955975;28;20066;-74
2021/06/27 22:14:30;;;;;;;6.45;4.22;;;;;;;;;;4955923;29;20059;-74
2021/06/27 22:16:56;;;;;;;6.05;4.57;;;;;;;;;;4958969;28;20054;-74
2021/06/27 22:19:22;;;;;;;8.52;4.72;;;;;;;;;;4973197;28;20031;-75
2021/06/27 22:21:48;;;;;;;5.20;4.22;;;;;;;;;;4973825;28;20030;-74
2021/06/27 22:24:14;;;;;;;7.82;5.32;;;;;;;;;;5006365;28;20063;-74
2021/06/27 22:26:40;;;;;;;6.72;4.68;;;;;;;;;;4991169;28;20026;-75
2021/06/27 22:29:06;;;;;;;8.98;4.55;;;;;;;;;;4974297;28;20030;-75
2021/06/27 22:31:33;;;;;;;11.27;5.25;;;;;;;;;;4974782;28;20099;-75
2021/06/27 22:33:59;;;;;;;5.07;4.43;;;;;;;;;;4974799;28;20031;-75
2021/06/27 22:36:25;;;;;;;7.75;4.57;;;;;;;;;;4974488;28;20027;-75
2021/06/27 22:38:51;;;;;;;7.75;4.32;;;;;;;;;;4954743;28;20047;-75
2021/06/27 22:41:17;;;;;;;6.68;4.50;;;;;;;;;;4955384;28;20039;-75
2021/06/27 22:43:43;;;;;;;5.00;4.15;;;;;;;;;;4954178;29;20058;-75
2021/06/27 22:46:09;;;;;;;6.13;4.05;;;;;;;;;;4955357;29;20109;-75
2021/06/27 22:48:35;;;;;;;5.78;4.85;;;;;;;;;;4971643;28;20491;-75
2021/06/27 22:51:01;;;;;;;5.53;4.30;;;;;;;;;;4973977;28;20037;-75
2021/06/27 22:53:27;;;;;;;6.25;4.93;;;;;;;;;;4984521;28;20041;-75
2021/06/27 22:55:53;;;;;;;10.27;4.90;;;;;;;;;;4993942;28;20034;-75
2021/06/27 22:58:19;;;;;;;13.32;4.88;;;;;;;;;;4977241;28;20030;-75
2021/06/27 23:00:45;;;;;;;6.65;4.78;;;;;;;;;;4973774;28;20031;-75
2021/06/27 23:03:11;;;;;;;7.18;4.70;;;;;;;;;;4989056;28;20118;-75
2021/06/27 23:05:37;;;;;;;7.57;4.57;;;;;;;;;;4974299;28;20023;-75
2021/06/27 23:08:03;;;;;;;8.65;4.63;;;;;;;;;;4976645;28;20059;-75
2021/06/27 23:10:29;;;;;;;12.57;5.28;;;;;;;;;;4953929;29;20511;-75
2021/06/27 23:12:55;;;;;;;8.05;4.85;;;;;;;;;;4969665;28;20031;-75
2021/06/27 23:15:21;;;;;;;7.68;4.63;;;;;;;;;;4953498;29;20075;-75
2021/06/27 23:17:47;;;;;;;6.13;4.43;;;;;;;;;;4964395;28;20455;-75
2021/06/27 23:20:17;;;;;;;5.82;3.97;;;;;;;;;;4973364;28;20026;-75
2021/06/27 23:22:43;;;;;;;7.57;4.53;;;;;;;;;;4977083;28;20058;-75
2021/06/27 23:25:10;;;;;;;4.93;4.28;;;;;;;;;;4993074;28;20038;-75
2021/06/27 23:27:36;;;;;;;5.68;4.57;;;;;;;;;;4984024;28;20034;-75
2021/06/27 23:30:03;;;;;;;5.63;4.65;;;;;;;;;;4973046;28;20026;-75
2021/06/27 23:32:29;;;;;;;5.25;4.65;;;;;;;;;;4972566;28;20027;-75
2021/06/27 23:34:55;;;;;;;6.25;4.78;;;;;;;;;;4973641;28;20037;-75
2021/06/27 23:37:21;;;;;;;10.57;5.90;;;;;;;;;;4967580;28;20031;-75
2021/06/27 23:39:47;;;;;;;7.55;5.60;;;;;;;;;;4953030;28;20095;-75
2021/06/27 23:42:13;;;;;;;10.45;6.05;;;;;;;;;;4954371;28;20034;-75
2021/06/27 23:44:39;;;;;;;8.50;5.88;;;;;;;;;;4954285;29;20059;-75
2021/06/27 23:47:05;;;;;;;8.10;5.63;;;;;;;;;;4972128;28;20066;-75
2021/06/27 23:49:31;;;;;;;7.45;5.95;;;;;;;;;;4971717;28;20121;-75
2021/06/27 23:51:57;;;;;;;10.93;5.55;;;;;;;;;;4972088;28;20033;-75
2021/06/27 23:54:23;;;;;;;7.35;5.22;;;;;;;;;;4990917;28;20094;-75
2021/06/27 23:56:49;;;;;;;8.80;5.85;;;;;;;;;;4990693;28;20437;-75
2021/06/27 23:59:15;;;;;;;5.88;5.25;;;;;;;;;;4972712;28;20038;-75
